createdAt,value
2022-11-05T00:00:14.993Z,97976.41
2022-11-05T00:01:34.608Z,97973.03
2022-11-05T00:02:54.485Z,97977.59
2022-11-05T00:04:14.523Z,97977.22
2022-11-05T00:05:35.097Z,97973.06
2022-11-05T00:06:54.986Z,97968.19
2022-11-05T00:08:16.793Z,97973.88
2022-11-05T00:09:32.537Z,97968.63
2022-11-05T00:10:37.593Z,97974.59
2022-11-05T00:12:08.230Z,97976.47
2022-11-05T00:13:29.370Z,97973.06
2022-11-05T00:14:49.504Z,97974.19
2022-11-05T00:16:09.377Z,97983.56
2022-11-05T00:17:10.828Z,97975.56
2022-11-05T00:18:12.303Z,97980.13
2022-11-05T00:19:14.900Z,97979.16
2022-11-05T00:20:16.742Z,97984.81
2022-11-05T00:21:36.697Z,97981.41
2022-11-05T00:22:57.199Z,97987.88
2022-11-05T00:24:21.736Z,97988.25
2022-11-05T00:25:25.569Z,97992.03
2022-11-05T00:26:27.001Z,97992.47
2022-11-05T00:27:28.542Z,97992.09
2022-11-05T00:28:30.540Z,98001.50
2022-11-05T00:29:32.143Z,98000.81
2022-11-05T00:30:33.578Z,98000.13
2022-11-05T00:31:35.086Z,98006.16
2022-11-05T00:32:36.641Z,98001.63
2022-11-05T00:33:39.344Z,98002.38
2022-11-05T00:34:40.783Z,98000.50
2022-11-05T00:35:42.786Z,98005.09
2022-11-05T00:36:44.235Z,98013.38
2022-11-05T00:37:50.085Z,98008.53
2022-11-05T00:38:52.068Z,98006.22
2022-11-05T00:39:53.584Z,98008.88
2022-11-05T00:40:55.354Z,98009.28
2022-11-05T00:42:15.364Z,98012.31
2022-11-05T00:43:35.200Z,98019.47
2022-11-05T00:44:55.140Z,98012.25
2022-11-05T00:45:56.937Z,98011.16
2022-11-05T00:47:18.381Z,98013.03
2022-11-05T00:48:38.260Z,98009.22
2022-11-05T00:49:39.687Z,98013.75
2022-11-05T00:50:41.191Z,98011.88
2022-11-05T00:51:42.970Z,98007.34
2022-11-05T00:52:56.137Z,98014.09
2022-11-05T00:53:57.631Z,98012.22
2022-11-05T00:54:59.087Z,98019.41
2022-11-05T00:56:01.394Z,98016.00
2022-11-05T00:57:04.783Z,98020.53
2022-11-05T00:58:15.677Z,98014.50
2022-11-05T00:59:17.134Z,98017.13
2022-11-05T01:00:18.974Z,98021.22
2022-11-05T01:01:20.839Z,98021.56
2022-11-05T01:02:22.502Z,98022.00
2022-11-05T01:03:27.468Z,98024.97
2022-11-05T01:04:28.876Z,98018.94
2022-11-05T01:05:31.935Z,98023.44
2022-11-05T01:06:33.345Z,98026.09
2022-11-05T01:07:34.805Z,98025.31
2022-11-05T01:08:36.752Z,98030.16
2022-11-05T01:09:38.169Z,98029.78
2022-11-05T01:10:44.433Z,98033.59
2022-11-05T01:11:46.366Z,98026.09
2022-11-05T01:12:48.347Z,98034.75
2022-11-05T01:13:49.836Z,98027.19
2022-11-05T01:14:51.368Z,98039.25
2022-11-05T01:15:52.945Z,98038.13
2022-11-05T01:16:54.422Z,98043.06
2022-11-05T01:17:55.889Z,98043.81
2022-11-05T01:18:57.358Z,98045.34
2022-11-05T01:19:58.787Z,98037.00
2022-11-05T01:21:00.610Z,98040.81
2022-11-05T01:22:02.019Z,98038.56
2022-11-05T01:23:04.664Z,98036.69
2022-11-05T01:24:10.623Z,98043.47
2022-11-05T01:25:12.394Z,98035.97
2022-11-05T01:26:13.892Z,98040.06
2022-11-05T01:27:15.320Z,98043.81
2022-11-05T01:28:16.878Z,98041.59
2022-11-05T01:29:18.527Z,98041.22
2022-11-05T01:30:20.781Z,98039.31
2022-11-05T01:31:23.049Z,98042.69
2022-11-05T01:32:24.516Z,98050.59
2022-11-05T01:33:26.008Z,98050.47
2022-11-05T01:34:27.508Z,98042.25
2022-11-05T01:35:29.947Z,98047.91
2022-11-05T01:36:31.359Z,98054.28
2022-11-05T01:37:34.257Z,98056.91
2022-11-05T01:38:35.709Z,98055.41
2022-11-05T01:39:37.290Z,98053.94
2022-11-05T01:40:43.009Z,98065.97
2022-11-05T01:41:44.515Z,98065.28
2022-11-05T01:42:46.875Z,98063.75
2022-11-05T01:43:54.618Z,98061.88
2022-11-05T01:45:11.294Z,98070.53
2022-11-05T01:46:12.980Z,98063.41
2022-11-05T01:47:22.078Z,98071.72
2022-11-05T01:48:32.326Z,98064.59
2022-11-05T01:49:34.517Z,98064.59
2022-11-05T01:50:49.625Z,98068.34
2022-11-05T01:51:51.719Z,98068.34
2022-11-05T01:52:57.985Z,98058.56
2022-11-05T01:54:08.170Z,98075.06
2022-11-05T01:55:10.861Z,98067.91
2022-11-05T01:56:22.891Z,98075.06
2022-11-05T01:57:24.778Z,98069.03
2022-11-05T01:58:32.635Z,98072.41
2022-11-05T01:59:43.213Z,98072.81
2022-11-05T02:00:45.462Z,98075.13
2022-11-05T02:01:47.204Z,98074.75
2022-11-05T02:02:48.977Z,98073.63
2022-11-05T02:03:53.513Z,98076.28
2022-11-05T02:04:59.982Z,98073.63
2022-11-05T02:06:03.880Z,98078.91
2022-11-05T02:07:07.634Z,98079.66
2022-11-05T02:08:20.631Z,98084.94
2022-11-05T02:09:36.611Z,98075.88
2022-11-05T02:10:38.751Z,98081.53
2022-11-05T02:11:40.708Z,98080.03
2022-11-05T02:12:46.316Z,98076.28
2022-11-05T02:13:49.323Z,98074.41
2022-11-05T02:14:50.680Z,98076.28
2022-11-05T02:15:57.647Z,98079.25
2022-11-05T02:17:26.115Z,98077.38
2022-11-05T02:18:41.060Z,98081.53
2022-11-05T02:20:24.776Z,98083.41
2022-11-05T02:21:38.997Z,98086.03
2022-11-05T02:22:56.064Z,98094.72
2022-11-05T02:24:09.467Z,98087.16
2022-11-05T02:25:30.052Z,98091.31
2022-11-05T02:27:09.070Z,98093.94
2022-11-05T02:28:55.293Z,98092.03
2022-11-05T02:30:04.004Z,98098.06
2022-11-05T02:31:27.860Z,98093.56
2022-11-05T02:32:35.572Z,98095.75
2022-11-05T02:33:56.518Z,98093.88
2022-11-05T02:35:18.324Z,98094.66
2022-11-05T02:36:45.195Z,98091.25
2022-11-05T02:37:54.315Z,98098.44
2022-11-05T02:39:18.777Z,98098.44
2022-11-05T02:40:23.128Z,98097.31
2022-11-05T02:41:34.471Z,98105.97
2022-11-05T02:43:17.716Z,98100.25
2022-11-05T02:44:41.445Z,98102.91
2022-11-05T02:46:00.496Z,98102.91
2022-11-05T02:47:26.650Z,98105.53
2022-11-05T02:48:49.064Z,98113.44
2022-11-05T02:50:20.730Z,98113.78
2022-11-05T02:51:40.875Z,98117.19
2022-11-05T02:52:59.274Z,98122.44
2022-11-05T02:54:35.980Z,98117.56
2022-11-05T02:55:42.616Z,98111.56
2022-11-05T02:56:48.646Z,98117.88
2022-11-05T02:57:50.163Z,98120.16
2022-11-05T02:58:51.601Z,98125.84
2022-11-05T03:00:07.866Z,98123.84
2022-11-05T03:01:11.552Z,98121.97
2022-11-05T03:02:13.175Z,98115.97
2022-11-05T03:03:18.689Z,98122.38
2022-11-05T03:04:22.635Z,98117.88
2022-11-05T03:05:33.952Z,98114.16
2022-11-05T03:06:54.344Z,98118.28
2022-11-05T03:08:03.924Z,98109.22
2022-11-05T03:09:20.328Z,98111.09
2022-11-05T03:10:45.642Z,98109.22
2022-11-05T03:12:18.533Z,98109.56
2022-11-05T03:13:39.033Z,98111.38
2022-11-05T03:14:51.512Z,98110.97
2022-11-05T03:16:16.941Z,98112.06
2022-11-05T03:17:36.955Z,98105.72
2022-11-05T03:19:00.816Z,98117.41
2022-11-05T03:20:17.293Z,98112.91
2022-11-05T03:21:30.665Z,98112.50
2022-11-05T03:22:41.726Z,98114.78
2022-11-05T03:24:10.465Z,98116.66
2022-11-05T03:25:20.567Z,98119.63
2022-11-05T03:26:32.015Z,98109.09
2022-11-05T03:27:37.433Z,98116.66
2022-11-05T03:28:43.081Z,98122.31
2022-11-05T03:29:48.947Z,98118.16
2022-11-05T03:30:54.853Z,98117.03
2022-11-05T03:31:59.842Z,98122.31
2022-11-05T03:33:06.845Z,98121.97
2022-11-05T03:34:11.891Z,98121.22
2022-11-05T03:35:20.622Z,98121.50
2022-11-05T03:36:28.627Z,98123.78
2022-11-05T03:37:34.390Z,98122.66
2022-11-05T03:38:41.632Z,98126.06
2022-11-05T03:39:48.481Z,98123.44
2022-11-05T03:40:53.448Z,98124.91
2022-11-05T03:41:57.796Z,98123.03
2022-11-05T03:43:03.714Z,98120.78
2022-11-05T03:44:08.129Z,98126.06
2022-11-05T03:45:15.798Z,98130.22
2022-11-05T03:46:26.581Z,98123.09
2022-11-05T03:47:32.706Z,98127.25
2022-11-05T03:48:41.208Z,98126.06
2022-11-05T03:50:04.245Z,98128.28
2022-11-05T03:51:17.808Z,98131.28
2022-11-05T03:52:24.634Z,98130.16
2022-11-05T03:53:29.909Z,98142.97
2022-11-05T03:54:32.669Z,98144.09
2022-11-05T03:55:42.087Z,98142.56
2022-11-05T03:57:01.133Z,98140.34
2022-11-05T03:58:04.895Z,98146.72
2022-11-05T03:59:09.161Z,98143.34
2022-11-05T04:00:11.438Z,98147.09
2022-11-05T04:01:13.170Z,98141.84
2022-11-05T04:02:18.003Z,98146.84
2022-11-05T04:03:19.582Z,98146.06
2022-11-05T04:04:21.325Z,98148.31
2022-11-05T04:05:23.313Z,98148.72
2022-11-05T04:06:45.816Z,98156.53
2022-11-05T04:08:08.764Z,98148.31
2022-11-05T04:09:33.165Z,98146.06
2022-11-05T04:10:53.213Z,98157.03
2022-11-05T04:12:13.460Z,98147.25
2022-11-05T04:13:26.782Z,98156.69
2022-11-05T04:14:28.204Z,98153.28
2022-11-05T04:15:30.027Z,98146.16
2022-11-05T04:16:50.482Z,98147.66
2022-11-05T04:17:52.411Z,98154.44
2022-11-05T04:18:53.821Z,98148.84
2022-11-05T04:20:15.215Z,98140.94
2022-11-05T04:21:35.362Z,98151.47
2022-11-05T04:22:55.549Z,98148.09
2022-11-05T04:24:09.289Z,98149.59
2022-11-05T04:25:11.546Z,98153.41
2022-11-05T04:26:13.032Z,98156.78
2022-11-05T04:27:14.908Z,98156.44
2022-11-05T04:28:17.057Z,98156.03
2022-11-05T04:29:37.228Z,98155.69
2022-11-05T04:30:39.096Z,98168.09
2022-11-05T04:31:40.549Z,98164.34
2022-11-05T04:32:42.296Z,98160.53
2022-11-05T04:33:43.695Z,98164.69
2022-11-05T04:34:45.103Z,98165.81
2022-11-05T04:35:48.438Z,98162.84
2022-11-05T04:36:51.421Z,98168.50
2022-11-05T04:37:53.466Z,98168.16
2022-11-05T04:38:54.881Z,98167.38
2022-11-05T04:39:56.304Z,98160.25
2022-11-05T04:41:13.181Z,98163.31
2022-11-05T04:42:14.612Z,98165.19
2022-11-05T04:43:19.057Z,98165.59
2022-11-05T04:44:20.768Z,98164.81
2022-11-05T04:45:23.721Z,98173.13
2022-11-05T04:46:25.058Z,98168.91
2022-11-05T04:47:26.456Z,98169.34
2022-11-05T04:48:28.182Z,98165.50
2022-11-05T04:49:29.586Z,98166.34
2022-11-05T04:50:32.026Z,98164.81
2022-11-05T04:51:33.440Z,98174.59
2022-11-05T04:52:34.866Z,98169.34
2022-11-05T04:53:36.410Z,98168.97
2022-11-05T04:54:38.322Z,98180.25
2022-11-05T04:55:39.740Z,98179.19
2022-11-05T04:56:41.204Z,98176.53
2022-11-05T04:57:42.762Z,98179.50
2022-11-05T04:58:44.851Z,98187.41
2022-11-05T04:59:48.768Z,98187.41
2022-11-05T05:00:50.461Z,98182.13
2022-11-05T05:01:53.074Z,98183.66
2022-11-05T05:02:54.618Z,98198.69
2022-11-05T05:03:56.105Z,98193.84
2022-11-05T05:04:57.744Z,98198.38
2022-11-05T05:06:03.693Z,98196.06
2022-11-05T05:07:05.877Z,98198.69
2022-11-05T05:08:07.596Z,98199.47
2022-11-05T05:09:09.040Z,98202.09
2022-11-05T05:10:11.091Z,98201.00
2022-11-05T05:11:15.052Z,98202.88
2022-11-05T05:12:16.601Z,98203.97
2022-11-05T05:13:18.033Z,98206.59
2022-11-05T05:14:19.818Z,98214.16
2022-11-05T05:15:21.227Z,98204.78
2022-11-05T05:16:25.171Z,98211.53
2022-11-05T05:17:26.690Z,98210.00
2022-11-05T05:18:29.087Z,98213.75
2022-11-05T05:19:30.678Z,98211.88
2022-11-05T05:20:50.430Z,98217.13
2022-11-05T05:21:52.183Z,98211.88
2022-11-05T05:22:54.820Z,98216.81
2022-11-05T05:23:56.814Z,98222.06
2022-11-05T05:24:59.885Z,98223.94
2022-11-05T05:26:01.333Z,98223.13
2022-11-05T05:27:02.771Z,98227.28
2022-11-05T05:28:04.346Z,98231.03
2022-11-05T05:29:06.696Z,98233.66
2022-11-05T05:30:09.014Z,98235.09
2022-11-05T05:31:10.546Z,98234.34
2022-11-05T05:32:11.970Z,98237.38
2022-11-05T05:33:13.512Z,98233.97
2022-11-05T05:34:15.612Z,98236.28
2022-11-05T05:35:17.562Z,98237.81
2022-11-05T05:36:18.973Z,98241.19
2022-11-05T05:37:20.468Z,98237.81
2022-11-05T05:38:21.891Z,98247.59
2022-11-05T05:39:23.370Z,98236.28
2022-11-05T05:40:24.822Z,98248.34
2022-11-05T05:41:26.429Z,98252.50
2022-11-05T05:42:27.864Z,98246.06
2022-11-05T05:43:30.702Z,98245.72
2022-11-05T05:44:32.522Z,98255.81
2022-11-05T05:45:35.833Z,98258.13
2022-11-05T05:46:37.429Z,98252.09
2022-11-05T05:47:38.889Z,98261.44
2022-11-05T05:48:40.870Z,98259.56
2022-11-05T05:49:42.689Z,98267.88
2022-11-05T05:50:44.097Z,98266.34
2022-11-05T05:51:45.610Z,98267.47
2022-11-05T05:52:47.114Z,98275.34
2022-11-05T05:53:48.521Z,98270.44
2022-11-05T05:54:50.327Z,98271.88
2022-11-05T05:55:54.053Z,98276.75
2022-11-05T05:56:55.589Z,98280.16
2022-11-05T05:57:57.022Z,98283.13
2022-11-05T05:58:58.469Z,98283.53
2022-11-05T06:00:01.877Z,98283.53
2022-11-05T06:01:12.929Z,98280.50
2022-11-05T06:02:17.304Z,98280.16
2022-11-05T06:03:18.865Z,98282.78
2022-11-05T06:04:20.711Z,98275.25
2022-11-05T06:05:22.581Z,98266.97
2022-11-05T06:06:24.028Z,98277.16
2022-11-05T06:07:25.466Z,98276.41
2022-11-05T06:08:27.013Z,98274.19
2022-11-05T06:09:28.809Z,98282.09
2022-11-05T06:10:30.638Z,98279.47
2022-11-05T06:11:32.219Z,98285.81
2022-11-05T06:12:33.698Z,98288.44
2022-11-05T06:13:36.664Z,98288.44
2022-11-05T06:14:38.018Z,98289.25
2022-11-05T06:15:39.690Z,98288.44
2022-11-05T06:16:41.177Z,98290.00
2022-11-05T06:17:45.439Z,98289.25
2022-11-05T06:18:47.197Z,98288.06
2022-11-05T06:19:48.662Z,98297.47
2022-11-05T06:20:50.401Z,98297.13
2022-11-05T06:21:51.816Z,98299.41
2022-11-05T06:22:57.486Z,98299.41
2022-11-05T06:24:01.058Z,98297.91
2022-11-05T06:25:02.551Z,98302.06
2022-11-05T06:26:10.107Z,98307.69
2022-11-05T06:27:11.566Z,98316.25
2022-11-05T06:28:12.983Z,98310.63
2022-11-05T06:29:14.389Z,98308.44
2022-11-05T06:30:17.530Z,98313.75
2022-11-05T06:31:19.285Z,98311.13
2022-11-05T06:32:20.685Z,98308.47
2022-11-05T06:33:22.230Z,98315.63
2022-11-05T06:34:23.638Z,98314.53
2022-11-05T06:35:25.055Z,98316.06
2022-11-05T06:36:26.820Z,98314.47
2022-11-05T06:37:28.249Z,98310.03
2022-11-05T06:38:32.716Z,98315.59
2022-11-05T06:39:34.893Z,98312.75
2022-11-05T06:40:36.300Z,98313.75
2022-11-05T06:41:56.933Z,98314.72
2022-11-05T06:42:59.567Z,98310.91
2022-11-05T06:44:01.121Z,98312.16
2022-11-05T06:45:02.955Z,98320.13
2022-11-05T06:46:05.030Z,98318.41
2022-11-05T06:47:06.745Z,98321.97
2022-11-05T06:48:08.291Z,98319.81
2022-11-05T06:49:09.716Z,98318.03
2022-11-05T06:50:11.668Z,98325.66
2022-11-05T06:51:13.196Z,98326.09
2022-11-05T06:52:16.001Z,98324.28
2022-11-05T06:53:17.881Z,98331.84
2022-11-05T06:54:19.367Z,98338.72
2022-11-05T06:55:20.845Z,98336.13
2022-11-05T06:56:22.600Z,98341.06
2022-11-05T06:57:24.098Z,98340.72
2022-11-05T06:58:26.771Z,98347.50
2022-11-05T06:59:28.184Z,98341.13
2022-11-05T07:00:30.090Z,98343.75
2022-11-05T07:01:32.166Z,98338.91
2022-11-05T07:02:33.774Z,98351.41
2022-11-05T07:03:36.571Z,98347.66
2022-11-05T07:04:38.118Z,98343.56
2022-11-05T07:05:43.924Z,98349.59
2022-11-05T07:06:45.376Z,98348.13
2022-11-05T07:07:46.824Z,98349.66
2022-11-05T07:08:48.270Z,98353.50
2022-11-05T07:09:52.376Z,98350.50
2022-11-05T07:10:53.809Z,98347.88
2022-11-05T07:11:55.788Z,98353.88
2022-11-05T07:12:57.279Z,98352.78
2022-11-05T07:13:58.933Z,98354.66
2022-11-05T07:15:00.462Z,98358.81
2022-11-05T07:16:01.881Z,98353.97
2022-11-05T07:17:03.754Z,98356.59
2022-11-05T07:18:07.474Z,98354.72
2022-11-05T07:19:09.194Z,98360.00
2022-11-05T07:20:11.086Z,98363.38
2022-11-05T07:21:12.521Z,98359.63
2022-11-05T07:22:13.937Z,98368.66
2022-11-05T07:23:16.234Z,98367.13
2022-11-05T07:24:17.756Z,98371.28
2022-11-05T07:25:19.208Z,98369.41
2022-11-05T07:26:21.026Z,98377.69
2022-11-05T07:27:22.468Z,98381.47
2022-11-05T07:28:24.046Z,98374.28
2022-11-05T07:29:25.487Z,98371.66
2022-11-05T07:30:27.228Z,98379.94
2022-11-05T07:31:28.979Z,98379.88
2022-11-05T07:32:30.400Z,98387.44
2022-11-05T07:33:36.318Z,98386.69
2022-11-05T07:34:38.214Z,98392.72
2022-11-05T07:35:39.656Z,98395.75
2022-11-05T07:36:41.478Z,98394.66
2022-11-05T07:37:44.639Z,98393.47
2022-11-05T07:38:46.062Z,98401.38
2022-11-05T07:39:47.531Z,98398.00
2022-11-05T07:40:48.969Z,98397.28
2022-11-05T07:41:52.469Z,98396.97
2022-11-05T07:42:59.022Z,98399.66
2022-11-05T07:44:00.486Z,98406.47
2022-11-05T07:45:01.937Z,98401.25
2022-11-05T07:46:03.411Z,98399.78
2022-11-05T07:47:05.189Z,98413.38
2022-11-05T07:48:07.165Z,98413.81
2022-11-05T07:49:08.653Z,98409.28
2022-11-05T07:50:10.376Z,98415.75
2022-11-05T07:51:11.792Z,98410.13
2022-11-05T07:52:13.215Z,98412.00
2022-11-05T07:53:14.993Z,98418.44
2022-11-05T07:54:16.679Z,98412.50
2022-11-05T07:55:19.587Z,98415.53
2022-11-05T07:56:21.043Z,98417.84
2022-11-05T07:57:22.618Z,98421.22
2022-11-05T07:58:24.260Z,98417.47
2022-11-05T07:59:25.668Z,98414.50
2022-11-05T08:00:28.677Z,98423.94
2022-11-05T08:01:30.105Z,98414.91
2022-11-05T08:02:32.037Z,98420.53
2022-11-05T08:03:34.587Z,98421.63
2022-11-05T08:04:36.137Z,98416.72
2022-11-05T08:05:40.420Z,98414.50
2022-11-05T08:06:41.889Z,98414.91
2022-11-05T08:07:43.377Z,98419.84
2022-11-05T08:08:44.836Z,98420.59
2022-11-05T08:09:46.270Z,98419.47
2022-11-05T08:10:47.755Z,98424.34
2022-11-05T08:11:52.236Z,98420.59
2022-11-05T08:12:55.819Z,98418.78
2022-11-05T08:13:57.276Z,98426.34
2022-11-05T08:14:58.721Z,98427.22
2022-11-05T08:16:01.633Z,98431.03
2022-11-05T08:17:03.042Z,98427.63
2022-11-05T08:18:06.028Z,98427.28
2022-11-05T08:19:07.473Z,98429.22
2022-11-05T08:20:09.833Z,98433.03
2022-11-05T08:21:11.271Z,98435.31
2022-11-05T08:22:12.729Z,98432.34
2022-11-05T08:23:14.932Z,98433.50
2022-11-05T08:24:16.576Z,98438.78
2022-11-05T08:25:18.074Z,98438.59
2022-11-05T08:26:20.332Z,98434.84
2022-11-05T08:27:22.139Z,98439.41
2022-11-05T08:28:25.330Z,98443.94
2022-11-05T08:29:26.806Z,98438.66
2022-11-05T08:30:29.268Z,98443.22
2022-11-05T08:31:31.908Z,98443.22
2022-11-05T08:32:33.764Z,98446.97
2022-11-05T08:33:35.229Z,98448.72
2022-11-05T08:34:36.662Z,98448.38
2022-11-05T08:35:39.540Z,98458.16
2022-11-05T08:36:43.434Z,98458.56
2022-11-05T08:37:45.302Z,98459.00
2022-11-05T08:38:46.877Z,98456.00
2022-11-05T08:39:48.442Z,98459.75
2022-11-05T08:40:58.006Z,98459.75
2022-11-05T08:41:59.543Z,98461.19
2022-11-05T08:43:04.957Z,98461.63
2022-11-05T08:44:08.753Z,98466.91
2022-11-05T08:45:10.280Z,98470.72
2022-11-05T08:46:11.782Z,98463.22
2022-11-05T08:47:13.225Z,98467.78
2022-11-05T08:48:17.278Z,98466.19
2022-11-05T08:49:18.706Z,98464.31
2022-11-05T08:50:20.251Z,98463.97
2022-11-05T08:51:21.692Z,98466.25
2022-11-05T08:52:23.453Z,98462.50
2022-11-05T08:53:24.954Z,98465.16
2022-11-05T08:54:26.389Z,98466.69
2022-11-05T08:55:28.219Z,98464.09
2022-11-05T08:56:29.663Z,98465.28
2022-11-05T08:57:31.117Z,98472.78
2022-11-05T08:58:33.351Z,98475.09
2022-11-05T08:59:34.783Z,98475.91
2022-11-05T09:00:37.525Z,98478.97
2022-11-05T09:01:39.184Z,98479.44
2022-11-05T09:02:41.764Z,98482.16
2022-11-05T09:03:43.232Z,98480.69
2022-11-05T09:04:44.820Z,98478.13
2022-11-05T09:05:46.748Z,98478.13
2022-11-05T09:06:48.227Z,98475.00
2022-11-05T09:07:49.771Z,98475.09
2022-11-05T09:08:51.405Z,98472.56
2022-11-05T09:09:52.855Z,98474.91
2022-11-05T09:10:54.385Z,98475.38
2022-11-05T09:12:11.847Z,98465.66
2022-11-05T09:13:18.848Z,98468.72
2022-11-05T09:14:21.434Z,98466.44
2022-11-05T09:15:24.430Z,98476.66
2022-11-05T09:16:26.107Z,98474.84
2022-11-05T09:17:27.628Z,98473.25
2022-11-05T09:18:29.452Z,98472.72
2022-11-05T09:19:30.893Z,98469.72
2022-11-05T09:20:33.357Z,98473.94
2022-11-05T09:21:34.799Z,98476.22
2022-11-05T09:22:42.074Z,98482.25
2022-11-05T09:23:46.232Z,98477.41
2022-11-05T09:24:47.705Z,98486.09
2022-11-05T09:25:49.172Z,98478.56
2022-11-05T09:26:50.634Z,98483.09
2022-11-05T09:27:52.070Z,98483.50
2022-11-05T09:28:54.405Z,98483.50
2022-11-05T09:29:55.871Z,98483.56
2022-11-05T09:30:57.284Z,98477.19
2022-11-05T09:31:58.687Z,98476.44
2022-11-05T09:33:00.510Z,98477.22
2022-11-05T09:34:01.982Z,98475.78
2022-11-05T09:35:04.154Z,98482.56
2022-11-05T09:36:06.466Z,98480.38
2022-11-05T09:37:07.971Z,98489.03
2022-11-05T09:38:10.112Z,98490.63
2022-11-05T09:39:11.511Z,98488.03
2022-11-05T09:40:17.861Z,98489.31
2022-11-05T09:41:29.335Z,98491.34
2022-11-05T09:42:39.871Z,98490.91
2022-11-05T09:44:07.971Z,98492.50
2022-11-05T09:45:22.190Z,98494.06
2022-11-05T09:46:26.385Z,98491.13
2022-11-05T09:47:37.030Z,98484.03
2022-11-05T09:48:41.153Z,98486.69
2022-11-05T09:49:48.107Z,98493.53
2022-11-05T09:50:52.233Z,98494.34
2022-11-05T09:51:57.360Z,98489.13
2022-11-05T09:52:58.972Z,98492.03
2022-11-05T09:54:01.267Z,98492.72
2022-11-05T09:55:06.463Z,98492.69
2022-11-05T09:56:25.114Z,98502.47
2022-11-05T09:57:52.864Z,98499.88
2022-11-05T09:59:08.253Z,98501.44
2022-11-05T10:00:16.569Z,98501.47
2022-11-05T10:01:24.311Z,98505.97
2022-11-05T10:02:34.470Z,98513.50
2022-11-05T10:03:46.524Z,98509.34
2022-11-05T10:04:52.897Z,98505.22
2022-11-05T10:06:09.660Z,98514.66
2022-11-05T10:07:16.881Z,98509.81
2022-11-05T10:08:32.803Z,98510.94
2022-11-05T10:09:45.241Z,98511.69
2022-11-05T10:10:54.173Z,98518.06
2022-11-05T10:12:22.008Z,98507.56
2022-11-05T10:13:32.525Z,98508.69
2022-11-05T10:14:40.478Z,98510.97
2022-11-05T10:15:53.009Z,98508.97
2022-11-05T10:17:33.756Z,98511.63
2022-11-05T10:18:42.108Z,98517.91
2022-11-05T10:19:49.708Z,98510.69
2022-11-05T10:20:51.290Z,98515.63
2022-11-05T10:22:16.246Z,98514.88
2022-11-05T10:23:20.300Z,98511.47
2022-11-05T10:24:22.316Z,98515.19
2022-11-05T10:25:27.382Z,98524.91
2022-11-05T10:26:29.877Z,98512.81
2022-11-05T10:27:36.438Z,98518.84
2022-11-05T10:28:38.552Z,98516.63
2022-11-05T10:29:42.798Z,98524.97
2022-11-05T10:30:46.887Z,98527.63
2022-11-05T10:31:48.890Z,98524.31
2022-11-05T10:32:55.086Z,98525.75
2022-11-05T10:34:01.449Z,98529.22
2022-11-05T10:35:07.204Z,98529.53
2022-11-05T10:36:18.931Z,98534.47
2022-11-05T10:37:23.293Z,98528.81
2022-11-05T10:38:24.810Z,98529.97
2022-11-05T10:39:28.074Z,98539.38
2022-11-05T10:40:37.393Z,98536.81
2022-11-05T10:42:03.294Z,98535.75
2022-11-05T10:43:17.284Z,98537.28
2022-11-05T10:44:32.523Z,98534.34
2022-11-05T10:45:46.650Z,98537.03
2022-11-05T10:46:56.729Z,98533.34
2022-11-05T10:48:02.882Z,98538.31
2022-11-05T10:49:39.763Z,98539.19
2022-11-05T10:50:41.554Z,98532.97
2022-11-05T10:51:43.496Z,98533.47
2022-11-05T10:52:58.176Z,98535.09
2022-11-05T10:54:12.837Z,98538.56
2022-11-05T10:55:18.902Z,98534.47
2022-11-05T10:56:33.142Z,98542.03
2022-11-05T10:57:40.085Z,98541.22
2022-11-05T10:58:55.137Z,98542.28
2022-11-05T11:00:15.526Z,98539.28
2022-11-05T11:01:25.292Z,98541.44
2022-11-05T11:02:28.263Z,98550.09
2022-11-05T11:03:32.704Z,98546.47
2022-11-05T11:04:37.817Z,98543.72
2022-11-05T11:05:40.381Z,98545.13
2022-11-05T11:06:49.899Z,98549.44
2022-11-05T11:08:02.499Z,98538.88
2022-11-05T11:09:08.528Z,98541.97
2022-11-05T11:10:21.875Z,98534.50
2022-11-05T11:11:32.844Z,98539.91
2022-11-05T11:12:42.921Z,98540.38
2022-11-05T11:14:13.240Z,98538.06
2022-11-05T11:15:29.033Z,98536.16
2022-11-05T11:16:42.653Z,98534.31
2022-11-05T11:17:44.222Z,98532.75
2022-11-05T11:18:45.735Z,98528.53
2022-11-05T11:19:47.216Z,98538.72
2022-11-05T11:20:48.668Z,98536.44
2022-11-05T11:22:05.278Z,98536.03
2022-11-05T11:23:15.516Z,98543.38
2022-11-05T11:24:23.269Z,98536.56
2022-11-05T11:25:31.875Z,98533.81
2022-11-05T11:26:37.177Z,98541.91
2022-11-05T11:27:38.675Z,98535.97
2022-11-05T11:28:45.943Z,98537.91
2022-11-05T11:29:56.975Z,98536.44
2022-11-05T11:31:04.751Z,98538.66
2022-11-05T11:32:14.289Z,98542.88
2022-11-05T11:33:21.496Z,98536.59
2022-11-05T11:34:33.970Z,98541.88
2022-11-05T11:35:38.416Z,98538.72
2022-11-05T11:36:45.441Z,98541.72
2022-11-05T11:37:47.614Z,98540.66
2022-11-05T11:38:49.071Z,98544.72
2022-11-05T11:40:14.403Z,98533.81
2022-11-05T11:41:26.866Z,98539.13
2022-11-05T11:42:32.825Z,98542.59
2022-11-05T11:43:37.292Z,98539.53
2022-11-05T11:44:46.579Z,98539.63
2022-11-05T11:45:52.133Z,98537.81
2022-11-05T11:47:02.006Z,98548.81
2022-11-05T11:48:07.984Z,98546.78
2022-11-05T11:49:42.690Z,98548.69
2022-11-05T11:50:47.101Z,98550.50
2022-11-05T11:51:50.282Z,98555.91
2022-11-05T11:52:52.271Z,98554.44
2022-11-05T11:53:57.574Z,98538.28
2022-11-05T11:55:11.475Z,98554.44
2022-11-05T11:56:12.869Z,98550.31
2022-11-05T11:57:26.198Z,98554.25
2022-11-05T11:58:40.595Z,98550.63
2022-11-05T12:00:07.210Z,98549.19
2022-11-05T12:01:09.154Z,98555.75
2022-11-05T12:02:48.369Z,98553.22
2022-11-05T12:04:28.543Z,98554.88
2022-11-05T12:05:34.937Z,98551.16
2022-11-05T12:06:44.410Z,98552.28
2022-11-05T12:08:03.296Z,98559.47
2022-11-05T12:09:06.926Z,98547.63
2022-11-05T12:10:46.200Z,98545.81
2022-11-05T12:11:52.366Z,98551.97
2022-11-05T12:13:14.732Z,98555.09
2022-11-05T12:14:46.074Z,98549.50
2022-11-05T12:15:57.183Z,98548.72
2022-11-05T12:17:20.284Z,98547.66
2022-11-05T12:18:31.798Z,98544.25
2022-11-05T12:19:46.102Z,98542.47
2022-11-05T12:21:12.464Z,98534.56
2022-11-05T12:22:37.042Z,98549.06
2022-11-05T12:23:58.742Z,98541.44
2022-11-05T12:25:51.067Z,98538.03
2022-11-05T12:27:29.812Z,98542.53
2022-11-05T12:29:04.552Z,98542.25
2022-11-05T12:30:10.198Z,98539.47
2022-11-05T12:31:23.095Z,98547.13
2022-11-05T12:32:55.018Z,98542.25
2022-11-05T12:34:24.937Z,98537.72
2022-11-05T12:36:06.747Z,98541.13
2022-11-05T12:37:33.870Z,98539.59
2022-11-05T12:38:48.660Z,98545.66
2022-11-05T12:40:06.432Z,98545.66
2022-11-05T12:41:43.725Z,98534.31
2022-11-05T12:43:23.728Z,98543.56
2022-11-05T12:44:44.816Z,98539.19
2022-11-05T12:46:19.005Z,98541.91
2022-11-05T12:48:11.824Z,98547.59
2022-11-05T12:49:53.339Z,98550.63
2022-11-05T12:51:22.500Z,98547.81
2022-11-05T12:53:01.098Z,98545.41
2022-11-05T12:54:23.242Z,98543.97
2022-11-05T12:55:27.914Z,98546.28
2022-11-05T12:56:41.526Z,98546.41
2022-11-05T12:57:47.624Z,98542.81
2022-11-05T12:58:59.972Z,98546.56
2022-11-05T13:00:19.408Z,98549.63
2022-11-05T13:01:33.082Z,98547.06
2022-11-05T13:02:43.933Z,98545.22
2022-11-05T13:03:48.665Z,98545.59
2022-11-05T13:05:05.504Z,98553.97
2022-11-05T13:06:40.631Z,98546.66
2022-11-05T13:07:52.515Z,98550.13
2022-11-05T13:09:00.501Z,98554.69
2022-11-05T13:10:25.617Z,98558.06
2022-11-05T13:11:33.305Z,98553.53
2022-11-05T13:12:40.024Z,98556.94